createdAt,value
2019-05-07T00:00:35.305Z,1.62
2019-05-07T00:03:06.497Z,1.80
2019-05-07T00:05:38.253Z,1.65
2019-05-07T00:08:09.604Z,2.00
2019-05-07T00:10:42.535Z,2.00
2019-05-07T00:13:14.431Z,2.02
2019-05-07T00:15:46.988Z,1.82
2019-05-07T00:18:18.202Z,1.90
2019-05-07T00:20:49.372Z,0.88
2019-05-07T00:23:23.203Z,1.70
2019-05-07T00:25:54.193Z,1.70
2019-05-07T00:28:25.793Z,1.80
2019-05-07T00:30:57.099Z,1.35
2019-05-07T00:33:28.576Z,1.30
2019-05-07T00:36:18.122Z,1.60
2019-05-07T00:38:53.737Z,1.40
2019-05-07T00:41:37.815Z,1.57
2019-05-07T00:44:10.022Z,1.50
2019-05-07T00:46:44.311Z,1.37
2019-05-07T00:49:18.788Z,1.60
2019-05-07T00:51:51.914Z,1.57
2019-05-07T00:54:24.408Z,1.67
2019-05-07T00:56:56.096Z,1.50
2019-05-07T00:59:27.318Z,1.60
2019-05-07T01:01:58.666Z,1.70
2019-05-07T01:04:30.355Z,1.55
2019-05-07T01:07:02.730Z,1.52
2019-05-07T01:09:34.104Z,1.77
2019-05-07T01:12:05.475Z,1.52
2019-05-07T01:14:36.745Z,1.80
2019-05-07T01:17:08.283Z,1.50
2019-05-07T01:19:39.670Z,1.80
2019-05-07T01:22:12.577Z,1.80
2019-05-07T01:24:44.295Z,2.00
2019-05-07T01:27:15.798Z,1.87
2019-05-07T01:29:47.770Z,1.47
2019-05-07T01:32:34.386Z,1.60
2019-05-07T01:35:25.537Z,2.00
2019-05-07T01:37:58.280Z,1.80
2019-05-07T01:40:32.328Z,1.80
2019-05-07T01:43:03.228Z,1.60
2019-05-07T01:45:46.419Z,1.70
2019-05-07T01:48:09.151Z,2.22
2019-05-07T01:50:42.804Z,1.85
2019-05-07T01:53:13.368Z,1.72
2019-05-07T01:55:44.557Z,1.70
2019-05-07T01:58:15.713Z,1.22
2019-05-07T02:00:47.265Z,1.47
2019-05-07T02:03:24.966Z,1.52
2019-05-07T02:06:02.209Z,1.98
2019-05-07T02:09:02.459Z,2.00
2019-05-07T02:11:42.264Z,2.05
2019-05-07T02:14:13.743Z,1.80
2019-05-07T02:16:44.889Z,1.67
2019-05-07T02:19:16.503Z,1.80
2019-05-07T02:21:47.734Z,1.42
2019-05-07T02:24:18.915Z,1.87
2019-05-07T02:26:52.031Z,1.72
2019-05-07T02:29:23.102Z,1.40
2019-05-07T02:31:54.290Z,1.85
2019-05-07T02:34:25.468Z,1.60
2019-05-07T02:36:56.663Z,2.12
2019-05-07T02:39:44.576Z,1.95
2019-05-07T02:42:16.913Z,1.12
2019-05-07T02:45:23.992Z,2.03
2019-05-07T02:47:55.519Z,2.30
2019-05-07T02:50:45.753Z,1.67
2019-05-07T02:53:27.555Z,1.17
2019-05-07T02:55:58.786Z,1.32
2019-05-07T02:58:32.862Z,1.17
2019-05-07T03:01:04.890Z,2.90
2019-05-07T03:03:35.931Z,1.50
2019-05-07T03:06:07.203Z,1.57
2019-05-07T03:08:38.446Z,1.35
2019-05-07T03:11:13.712Z,2.20
2019-05-07T03:13:43.489Z,2.17
2019-05-07T03:16:34.437Z,2.27
2019-05-07T03:18:53.039Z,2.70
2019-05-07T03:21:23.771Z,2.52
2019-05-07T03:24:13.831Z,2.47
2019-05-07T03:26:46.326Z,2.33
2019-05-07T03:29:23.884Z,2.47
2019-05-07T03:31:57.664Z,2.55
2019-05-07T03:34:48.599Z,2.25
2019-05-07T03:37:23.796Z,2.37
2019-05-07T03:39:54.976Z,1.95
2019-05-07T03:42:26.238Z,2.25
2019-05-07T03:45:13.699Z,2.47
2019-05-07T03:47:54.190Z,2.60
2019-05-07T03:50:25.118Z,2.17
2019-05-07T03:52:56.439Z,2.33
2019-05-07T03:55:27.676Z,2.08
2019-05-07T03:57:59.148Z,2.17
2019-05-07T04:00:33.163Z,2.00
2019-05-07T04:03:03.795Z,2.20
2019-05-07T04:05:35.110Z,2.55
2019-05-07T04:08:06.314Z,2.22
2019-05-07T04:10:37.545Z,2.42
2019-05-07T04:13:08.770Z,2.40
2019-05-07T04:15:43.525Z,2.10
2019-05-07T04:18:13.401Z,2.45
2019-05-07T04:20:45.724Z,2.83
2019-05-07T04:23:17.278Z,1.50
2019-05-07T04:26:16.522Z,1.87
2019-05-07T04:28:55.614Z,0.98
2019-05-07T04:31:29.903Z,1.60
2019-05-07T04:34:03.877Z,2.77
2019-05-07T04:36:43.631Z,2.42
2019-05-07T04:39:15.637Z,2.22
2019-05-07T04:41:47.702Z,2.40
2019-05-07T04:44:18.882Z,1.95
2019-05-07T04:46:53.325Z,2.75
2019-05-07T04:49:24.111Z,2.77
2019-05-07T04:52:12.511Z,2.20
2019-05-07T04:54:46.014Z,3.22
2019-05-07T04:57:26.359Z,2.77
2019-05-07T04:59:58.374Z,2.22
2019-05-07T05:02:43.708Z,2.60
2019-05-07T05:05:16.299Z,2.37
2019-05-07T05:07:47.571Z,2.85
2019-05-07T05:10:18.840Z,1.50
2019-05-07T05:12:50.100Z,2.72
2019-05-07T05:15:22.172Z,1.95
2019-05-07T05:17:54.156Z,2.02
2019-05-07T05:20:34.938Z,1.98
2019-05-07T05:23:41.933Z,2.40
2019-05-07T05:26:13.356Z,2.70
2019-05-07T05:28:44.640Z,2.23
2019-05-07T05:31:15.984Z,2.27
2019-05-07T05:33:47.295Z,3.12
2019-05-07T05:36:18.950Z,2.37
2019-05-07T05:38:52.714Z,3.75
2019-05-07T05:41:27.111Z,2.80
2019-05-07T05:44:05.653Z,1.07
2019-05-07T05:46:36.983Z,2.80
2019-05-07T05:49:08.227Z,2.02
2019-05-07T05:52:05.204Z,2.40
2019-05-07T05:54:42.585Z,1.90
2019-05-07T05:57:25.314Z,2.22
2019-05-07T06:00:12.663Z,2.22
2019-05-07T06:02:53.368Z,2.27
2019-05-07T06:05:34.439Z,2.02
2019-05-07T06:08:20.074Z,1.95
2019-05-07T06:11:02.306Z,2.12
2019-05-07T06:13:42.684Z,2.22
2019-05-07T06:16:17.393Z,2.10
2019-05-07T06:19:07.705Z,1.60
2019-05-07T06:21:56.481Z,2.92
2019-05-07T06:24:35.533Z,2.00
2019-05-07T06:27:07.084Z,1.82
2019-05-07T06:29:38.962Z,2.17
2019-05-07T06:32:12.182Z,1.07
2019-05-07T06:34:44.712Z,1.27
2019-05-07T06:37:16.245Z,1.80
2019-05-07T06:40:08.562Z,2.70
2019-05-07T06:43:03.211Z,2.40
2019-05-07T06:47:34.535Z,2.85
2019-05-07T06:50:06.317Z,2.22
2019-05-07T06:52:37.685Z,1.87
2019-05-07T06:55:09.713Z,2.10
2019-05-07T06:57:42.570Z,2.20
2019-05-07T07:00:37.011Z,1.87
2019-05-07T07:03:36.706Z,1.90
2019-05-07T07:06:17.594Z,1.42
2019-05-07T07:09:04.294Z,0.93
2019-05-07T07:11:53.659Z,2.00
2019-05-07T07:14:25.621Z,1.87
2019-05-07T07:16:57.365Z,2.10
2019-05-07T07:21:32.671Z,1.92
2019-05-07T07:25:11.759Z,0.80
2019-05-07T07:27:43.073Z,1.42
2019-05-07T07:30:36.886Z,2.35
2019-05-07T07:33:09.351Z,2.20
2019-05-07T07:35:42.737Z,2.52
2019-05-07T07:38:34.985Z,2.52
2019-05-07T07:41:15.644Z,3.85
2019-05-07T07:43:48.477Z,1.30
2019-05-07T07:46:22.194Z,1.10
2019-05-07T07:49:06.780Z,0.88
2019-05-07T07:51:37.854Z,1.65
2019-05-07T07:54:02.262Z,1.37
2019-05-07T07:57:04.369Z,1.75
2019-05-07T08:00:12.858Z,2.12
2019-05-07T08:02:58.063Z,1.25
2019-05-07T08:05:29.325Z,1.72
2019-05-07T08:08:02.307Z,1.20
2019-05-07T08:10:33.778Z,1.57
2019-05-07T08:13:05.096Z,1.65
2019-05-07T08:15:36.428Z,2.08
2019-05-07T08:18:07.744Z,1.35
2019-05-07T08:22:08.697Z,1.35
2019-05-07T08:24:42.403Z,0.98
2019-05-07T08:27:15.346Z,1.17
2019-05-07T08:29:47.147Z,2.10
2019-05-07T08:32:36.230Z,1.77
2019-05-07T08:35:17.522Z,2.00
2019-05-07T08:37:48.945Z,2.12
2019-05-07T08:40:22.054Z,1.52
2019-05-07T08:43:06.794Z,1.35
2019-05-07T08:46:08.041Z,2.25
2019-05-07T08:48:44.038Z,1.57
2019-05-07T08:51:15.451Z,1.00
2019-05-07T08:53:49.316Z,1.27
2019-05-07T08:56:22.457Z,1.00
2019-05-07T08:58:56.896Z,1.05
2019-05-07T09:01:29.165Z,0.65
2019-05-07T09:04:04.822Z,1.15
2019-05-07T09:06:39.500Z,1.40
2019-05-07T09:09:13.204Z,1.57
2019-05-07T09:11:44.720Z,1.20
2019-05-07T09:14:17.738Z,0.85
2019-05-07T09:16:49.148Z,1.40
2019-05-07T09:19:21.676Z,1.45
2019-05-07T09:21:53.429Z,1.80
2019-05-07T09:24:25.120Z,1.75
2019-05-07T09:27:22.264Z,1.05
2019-05-07T09:30:15.839Z,1.07
2019-05-07T09:33:04.971Z,1.40
2019-05-07T09:35:48.336Z,1.20
2019-05-07T09:38:19.754Z,1.30
2019-05-07T09:40:52.445Z,1.70
2019-05-07T09:43:24.501Z,1.60
2019-05-07T09:45:57.727Z,1.77
2019-05-07T09:48:29.199Z,1.15
2019-05-07T09:51:03.303Z,0.95
2019-05-07T09:53:35.202Z,1.07
2019-05-07T09:56:06.548Z,1.40
2019-05-07T09:58:50.291Z,1.20
2019-05-07T10:01:25.165Z,1.25
2019-05-07T10:05:23.981Z,1.75
2019-05-07T10:08:07.301Z,2.33
2019-05-07T10:10:38.995Z,1.50
2019-05-07T10:13:22.607Z,1.70
2019-05-07T10:15:54.402Z,2.37
2019-05-07T10:18:25.688Z,0.90
2019-05-07T10:20:57.921Z,0.80
2019-05-07T10:23:29.860Z,1.27
2019-05-07T10:26:01.893Z,1.17
2019-05-07T10:28:33.252Z,1.30
2019-05-07T10:31:10.415Z,1.20
2019-05-07T10:33:48.314Z,1.40
2019-05-07T10:36:19.624Z,0.72
2019-05-07T10:38:52.032Z,1.37
2019-05-07T10:41:24.460Z,1.30
2019-05-07T10:43:56.015Z,2.37
2019-05-07T10:46:42.273Z,2.27
2019-05-07T10:49:18.767Z,4.33
2019-05-07T10:52:31.838Z,1.92
2019-05-07T10:55:03.356Z,1.85
2019-05-07T10:57:36.626Z,1.57
2019-05-07T11:00:12.432Z,1.67
2019-05-07T11:02:44.540Z,1.22
2019-05-07T11:05:18.466Z,1.70
2019-05-07T11:07:51.054Z,0.93
2019-05-07T11:10:22.393Z,1.80
2019-05-07T11:12:54.223Z,1.75
2019-05-07T11:15:27.620Z,1.80
2019-05-07T11:18:24.261Z,1.42
2019-05-07T11:20:57.737Z,1.40
2019-05-07T11:23:29.168Z,1.85
2019-05-07T11:26:02.596Z,1.60
2019-05-07T11:28:34.206Z,1.40
2019-05-07T11:31:06.157Z,1.02
2019-05-07T11:33:41.597Z,1.30
2019-05-07T11:36:12.238Z,1.50
2019-05-07T11:38:44.656Z,1.12
2019-05-07T11:41:18.042Z,1.10
2019-05-07T11:44:02.007Z,1.12
2019-05-07T11:46:58.695Z,0.47
2019-05-07T11:49:48.963Z,1.80
2019-05-07T11:52:35.640Z,1.20
2019-05-07T11:55:11.941Z,1.67
2019-05-07T11:57:52.419Z,2.10
2019-05-07T12:00:39.642Z,1.17
2019-05-07T12:03:11.395Z,0.78
2019-05-07T12:05:42.678Z,1.07
2019-05-07T12:08:15.171Z,1.22
2019-05-07T12:10:47.856Z,1.27
2019-05-07T12:13:21.628Z,1.30
2019-05-07T12:15:53.233Z,1.45
2019-05-07T12:18:25.096Z,1.15
2019-05-07T12:20:56.978Z,1.05
2019-05-07T12:23:28.535Z,0.60
2019-05-07T12:26:02.315Z,1.00
2019-05-07T12:28:33.437Z,1.30
2019-05-07T12:31:14.731Z,1.15
2019-05-07T12:34:11.946Z,1.52
2019-05-07T12:36:43.308Z,1.12
2019-05-07T12:39:17.656Z,1.05
2019-05-07T12:41:52.478Z,0.93
2019-05-07T12:44:25.182Z,0.90
2019-05-07T12:46:56.469Z,0.88
2019-05-07T12:49:29.035Z,1.00
2019-05-07T12:52:19.305Z,1.67
2019-05-07T12:55:03.306Z,0.93
2019-05-07T12:57:37.466Z,0.60
2019-05-07T13:00:37.512Z,0.82
2019-05-07T13:03:43.022Z,1.30
2019-05-07T13:06:16.291Z,1.00
2019-05-07T13:08:47.799Z,1.00
2019-05-07T13:11:19.042Z,1.30
2019-05-07T13:13:52.623Z,0.90
2019-05-07T13:16:23.716Z,1.10
2019-05-07T13:18:56.054Z,0.75
2019-05-07T13:21:27.366Z,1.00
2019-05-07T13:23:58.648Z,0.78
2019-05-07T13:26:32.179Z,1.37
2019-05-07T13:29:06.675Z,1.27
2019-05-07T13:31:40.213Z,1.40
2019-05-07T13:34:12.611Z,1.10
2019-05-07T13:36:47.698Z,1.10
2019-05-07T13:39:26.776Z,1.72
2019-05-07T13:42:09.325Z,1.10
2019-05-07T13:44:59.330Z,1.20
2019-05-07T13:47:41.230Z,1.02
2019-05-07T13:50:13.133Z,0.90
2019-05-07T13:52:45.043Z,1.07
2019-05-07T13:55:18.969Z,1.47
2019-05-07T13:57:53.076Z,1.00
2019-05-07T14:00:32.323Z,1.00
2019-05-07T14:03:03.401Z,1.57
2019-05-07T14:05:34.773Z,1.22
2019-05-07T14:08:06.095Z,1.65
2019-05-07T14:10:37.591Z,1.00
2019-05-07T14:13:15.837Z,1.02
2019-05-07T14:15:43.541Z,1.20
2019-05-07T14:18:14.742Z,0.80
2019-05-07T14:20:47.165Z,1.10
2019-05-07T14:23:18.444Z,1.15
2019-05-07T14:25:52.670Z,1.30
2019-05-07T14:28:24.476Z,0.90
2019-05-07T14:30:56.765Z,1.52
2019-05-07T14:34:02.883Z,0.88
2019-05-07T14:36:42.730Z,2.17
2019-05-07T14:39:13.955Z,1.52
2019-05-07T14:41:46.509Z,1.52
2019-05-07T14:44:18.085Z,1.32
2019-05-07T14:46:51.662Z,1.30
2019-05-07T14:49:22.649Z,1.40
2019-05-07T14:51:54.193Z,1.30
2019-05-07T14:54:25.398Z,1.05
2019-05-07T14:56:57.966Z,1.12
2019-05-07T14:59:29.359Z,1.62
2019-05-07T15:02:02.832Z,1.82
2019-05-07T15:04:34.448Z,1.60
2019-05-07T15:09:55.003Z,1.80
2019-05-07T15:12:26.374Z,1.70
2019-05-07T15:16:57.480Z,0.85
2019-05-07T15:19:28.931Z,0.70
2019-05-07T15:22:19.166Z,1.35
2019-05-07T15:24:52.493Z,1.50
2019-05-07T15:27:24.262Z,1.25
2019-05-07T15:29:55.627Z,1.50
2019-05-07T15:32:27.463Z,1.55
2019-05-07T15:34:58.645Z,1.17
2019-05-07T15:37:32.019Z,1.00
2019-05-07T15:40:03.065Z,2.60
2019-05-07T15:42:34.877Z,1.40
2019-05-07T15:45:07.312Z,1.60
2019-05-07T15:47:42.987Z,1.52
2019-05-07T15:50:15.908Z,2.15
2019-05-07T15:52:58.963Z,1.90
2019-05-07T15:55:33.221Z,0.50
2019-05-07T15:58:04.451Z,0.55
2019-05-07T16:00:37.414Z,2.35
2019-05-07T16:03:15.491Z,1.57
2019-05-07T16:05:47.618Z,1.10
2019-05-07T16:08:19.693Z,1.60
2019-05-07T16:10:53.158Z,1.30
2019-05-07T16:13:32.710Z,1.10
2019-05-07T16:16:03.848Z,1.10
2019-05-07T16:18:54.153Z,1.65
2019-05-07T16:21:45.521Z,4.10
2019-05-07T16:24:18.766Z,1.27
2019-05-07T16:26:52.321Z,0.90
2019-05-07T16:29:24.204Z,1.40
2019-05-07T16:31:56.432Z,1.00
2019-05-07T16:34:28.119Z,1.17
2019-05-07T16:37:03.514Z,1.10
2019-05-07T16:39:32.728Z,2.47
2019-05-07T16:42:03.945Z,1.20
2019-05-07T16:44:35.658Z,1.60
2019-05-07T16:47:06.893Z,1.47
2019-05-07T16:49:38.332Z,1.55
2019-05-07T16:52:11.856Z,1.35
2019-05-07T16:54:45.243Z,1.15
2019-05-07T16:57:24.976Z,1.02
2019-05-07T16:59:56.397Z,1.30
2019-05-07T17:02:32.161Z,1.37
2019-05-07T17:05:12.678Z,0.90
2019-05-07T17:08:03.033Z,1.37
2019-05-07T17:10:34.337Z,1.10
2019-05-07T17:13:05.505Z,0.95
2019-05-07T17:15:55.353Z,1.10
2019-05-07T17:18:28.478Z,1.27
2019-05-07T17:21:02.036Z,0.72
2019-05-07T17:23:44.135Z,1.32
2019-05-07T17:26:08.329Z,1.60
2019-05-07T17:28:39.638Z,1.20
2019-05-07T17:31:12.404Z,1.60
2019-05-07T17:33:43.996Z,1.35
2019-05-07T17:36:15.345Z,1.47
2019-05-07T17:38:47.137Z,1.60
2019-05-07T17:41:23.895Z,1.30
2019-05-07T17:43:52.420Z,1.37
2019-05-07T17:46:23.605Z,2.00
2019-05-07T17:48:54.830Z,1.90
2019-05-07T17:51:45.124Z,1.30
2019-05-07T17:54:16.756Z,1.37
2019-05-07T17:56:47.948Z,1.95
2019-05-07T17:59:19.531Z,1.55
2019-05-07T18:02:12.599Z,1.42
2019-05-07T18:04:50.918Z,1.72
2019-05-07T18:07:19.285Z,1.80
2019-05-07T18:09:51.104Z,3.17
2019-05-07T18:12:22.662Z,1.62
2019-05-07T18:14:53.854Z,1.30
2019-05-07T18:17:50.852Z,1.98
2019-05-07T18:20:22.264Z,1.75
2019-05-07T18:22:53.583Z,1.20
2019-05-07T18:25:24.777Z,1.60
2019-05-07T18:27:56.020Z,1.20
2019-05-07T18:30:27.211Z,1.40
2019-05-07T18:33:21.997Z,1.75
2019-05-07T18:35:52.944Z,1.45
2019-05-07T18:38:24.130Z,1.35
2019-05-07T18:40:55.357Z,1.65
2019-05-07T18:43:26.598Z,1.20
2019-05-07T18:45:58.565Z,1.32
2019-05-07T18:48:29.875Z,1.70
2019-05-07T18:51:02.684Z,1.65
2019-05-07T18:53:34.048Z,2.65
2019-05-07T18:56:05.518Z,1.40
2019-05-07T18:58:36.857Z,1.60
2019-05-07T19:01:11.195Z,1.65
2019-05-07T19:03:43.051Z,2.08
2019-05-07T19:06:15.568Z,2.58
2019-05-07T19:08:47.672Z,5.45
2019-05-07T19:11:22.840Z,2.42
2019-05-07T19:13:56.117Z,2.20
2019-05-07T19:16:27.533Z,2.10
2019-05-07T19:18:59.039Z,1.92
2019-05-07T19:21:31.985Z,2.37
2019-05-07T19:24:03.300Z,2.17
2019-05-07T19:26:34.973Z,2.15
2019-05-07T19:29:06.324Z,2.02
2019-05-07T19:31:38.125Z,2.35
2019-05-07T19:34:09.373Z,3.00
2019-05-07T19:36:42.461Z,2.45
2019-05-07T19:39:13.807Z,2.33
2019-05-07T19:41:45.412Z,6.05
2019-05-07T19:44:16.589Z,2.58
2019-05-07T19:46:47.828Z,2.20
2019-05-07T19:49:19.069Z,2.12
2019-05-07T19:51:52.229Z,2.30
2019-05-07T19:54:23.233Z,2.25
2019-05-07T19:56:54.454Z,2.50
2019-05-07T19:59:25.726Z,3.70
2019-05-07T20:02:02.118Z,3.10
2019-05-07T20:04:33.265Z,3.30
2019-05-07T20:07:07.483Z,2.58
2019-05-07T20:09:39.754Z,2.37
2019-05-07T20:12:11.025Z,2.98
2019-05-07T20:14:42.366Z,2.80
2019-05-07T20:17:13.666Z,2.55
2019-05-07T20:19:48.485Z,3.00
2019-05-07T20:22:22.042Z,3.12
2019-05-07T20:24:52.876Z,2.52
2019-05-07T20:27:26.305Z,2.70
2019-05-07T20:29:57.612Z,2.25
2019-05-07T20:32:28.776Z,2.10
2019-05-07T20:35:02.575Z,2.20
2019-05-07T20:37:33.933Z,2.50
2019-05-07T20:40:05.391Z,2.10
2019-05-07T20:42:37.812Z,2.25
2019-05-07T20:45:09.164Z,2.70
2019-05-07T20:48:03.617Z,2.20
2019-05-07T20:50:54.608Z,2.60
2019-05-07T20:53:53.072Z,2.00
2019-05-07T20:56:55.504Z,2.02
2019-05-07T20:59:37.356Z,2.47
2019-05-07T21:02:44.577Z,3.70
2019-05-07T21:05:32.454Z,4.22
2019-05-07T21:08:47.180Z,4.92
2019-05-07T21:11:40.294Z,4.08
2019-05-07T21:14:37.233Z,5.20
2019-05-07T21:17:32.261Z,5.45
2019-05-07T21:20:45.417Z,4.70
2019-05-07T21:24:46.847Z,5.10
2019-05-07T21:27:47.376Z,4.53
2019-05-07T21:31:12.230Z,6.40
2019-05-07T21:34:45.785Z,6.30
2019-05-07T21:38:22.487Z,6.03
2019-05-07T21:42:03.115Z,5.33
2019-05-07T21:45:17.223Z,5.00
2019-05-07T21:48:41.774Z,4.83
2019-05-07T21:55:19.810Z,5.53
2019-05-07T21:58:48.545Z,6.05
2019-05-07T22:02:02.531Z,5.40
2019-05-07T22:05:06.981Z,4.92
2019-05-07T22:08:35.008Z,5.08
2019-05-07T22:11:23.069Z,5.00
2019-05-07T22:14:12.907Z,4.40
2019-05-07T22:17:08.942Z,4.20
2019-05-07T22:19:46.951Z,3.52
2019-05-07T22:22:24.285Z,3.20
2019-05-07T22:25:17.606Z,3.70
2019-05-07T22:27:56.796Z,3.15
2019-05-07T22:30:36.169Z,2.90
2019-05-07T22:33:15.306Z,2.65
2019-05-07T22:36:18.018Z,2.25
2019-05-07T22:42:28.705Z,3.52
2019-05-07T23:02:55.189Z,3.42
2019-05-07T23:05:26.455Z,2.92
2019-05-07T23:07:57.699Z,2.70
2019-05-07T23:10:29.132Z,3.20
2019-05-07T23:13:02.312Z,2.50
2019-05-07T23:15:33.868Z,2.52
2019-05-07T23:18:05.179Z,2.30
2019-05-07T23:20:36.455Z,2.40
2019-05-07T23:23:07.625Z,1.80
2019-05-07T23:25:39.140Z,2.22
2019-05-07T23:28:12.436Z,1.90
2019-05-07T23:30:44.274Z,1.90
2019-05-07T23:33:16.652Z,1.87
2019-05-07T23:35:48.118Z,1.72
2019-05-07T23:38:22.390Z,2.00
2019-05-07T23:41:08.308Z,2.20
2019-05-07T23:43:39.663Z,2.12
2019-05-07T23:46:12.775Z,2.10
2019-05-07T23:48:43.726Z,1.82
2019-05-07T23:51:15.381Z,1.98
2019-05-07T23:53:47.022Z,2.37
2019-05-07T23:56:18.282Z,2.50
2019-05-07T23:58:52.626Z,2.60
